Flight Track Log - Related Links

Times and Time Zones

All times are in EDT time to prevent confusion due to time zone crossing. See the N55223 flight status page for this flight to view local times or setup timezone preferences in your user account.

Time Position Orientation Groundspeed Altitude Reporting Facility
EDT Latitude Longitude Course Direction KTS MPH feet Rate Location/Type
Mon 11:19:11 AM 26.6092 -80.0594 193° South 113 130 2,500  Level Miami Center
Mon 11:20:13 AM 26.5783 -80.0792 210° Southwest 126 145 2,500  Level Miami Center
Mon 11:21:15 AM 26.5442 -80.0981 206° Southwest 133 153 2,500  Level Miami Center
Mon 11:22:00 AM 26.4849 -80.1263 187° South  Level Estimated
Mon 11:22:17 AM 26.5064 -80.1192 207° Southwest 139 160 2,500  Level Miami Center
Mon 11:22:38 AM 26.4931 -80.1258 204° Southwest 137 158 2,500  Level Miami Center
Mon 11:23:00 AM 26.4516 -80.1286 184° South  Level FlightAware Approximate
Mon 11:23:19 AM 26.4725 -80.1369 206° Southwest 138 159 2,500  Level Miami Center
Mon 11:23:40 AM 26.4603 -80.1489 221° Southwest 139 160 2,500 -194 Level Miami Center
Mon 11:24:21 AM 26.4436 -80.1711 230° Southwest 138 159 2,300 -455 Descending Miami Center
Mon 11:24:46 AM 26.4328 -80.1861 231° Southwest 143 165 2,000 -581 Descending Miami Center
Mon 11:25:23 AM 26.4142 -80.2036 220° Southwest 150 173 1,700 -612 Descending Miami Center
Mon 11:25:35 AM 26.4042 -80.2097 209° Southwest 154 177 1,500  Descending Miami Center
Mon 11:26:25 AM 26.3725 -80.2072 176° South 140 161 1,700 269 Climbing Miami Center
Mon 11:26:42 AM 26.3625 -80.2064 176° South 131 151 1,800  Climbing Miami Center
Mon 11:27:27 AM 26.3358 -80.2100 187° South 136 157 1,700 -90 Descending Miami Center
Mon 11:27:49 AM 26.3225 -80.2103 181° South 136 157 1,700 -95 Level Miami Center
Mon 11:28:30 AM 26.2961 -80.2081 176° South 135 155 1,600 -197 Descending Miami Center
Mon 11:28:50 AM 26.2828 -80.2072 177° South 138 159 1,500 -290 Descending Miami Center
Mon 11:29:32 AM 26.2583 -80.2058 177° South 135 155 1,300 -231 Descending Miami Center
Mon 11:30:34 AM 26.2364 -80.2014 170° South 90 104 1,100 -465 Descending Miami Center
Mon 11:31:41 AM 26.2047 -80.1828 152° Southeast 101 116 300 -435 Descending Miami Center
Mon 11:32:38 AM 26.1903 -80.1644 131° Southeast 100 115 200 -105 Descending Miami Center
Mon 11:34:00 AM 26.1833 -80.1667 190° South  Level FlightAware Approximate

Login

Don't have an account? Register now (free) for customized features, flight alerts, and more!